Weather at Hall in Tirol Hospital Heliport

Public forecast

Using degrees Celsius for public forecast. Weather courtesy of forecast.io.

Closest aviation weather report (METAR) to Hall in Tirol Hospital Heliport

Closest report is Innsbruck Airport, 7.1 nm (13.2 km) W. Retrieved 2021/07/24 13:20 UTC (10 minutes ago):

LOWI 241320Z 07011KT 9999 FEW060 FEW060CB 29/16 Q1009 NOSIG

Closest aviation forecast (TAF) to Hall in Tirol Hospital Heliport

Closest forecast is Innsbruck Airport, 7.1 nm (13.2 km) W. Retrieved 2021/07/24 12:21 UTC (1 hour ago):

TAF LOWI 241115Z 2412/2512 10008KT 9999 FEW060CB SCT070 TX28/2413Z TN17/2503Z TEMPO 2412/2422 VRB25G45KT TSRA BKN040CB BECMG 2417/2419 27004KT BECMG 2509/2511 10007KT